createdAt,value
2022-11-25T00:00:33.615Z,10.01
2022-11-25T00:01:33.579Z,9.97
2022-11-25T00:02:33.579Z,9.97
2022-11-25T00:03:33.641Z,9.98
2022-11-25T00:04:33.799Z,9.92
2022-11-25T00:05:33.433Z,9.99
2022-11-25T00:06:33.407Z,10.01
2022-11-25T00:07:33.480Z,10.01
2022-11-25T00:08:33.425Z,9.95
2022-11-25T00:09:33.330Z,9.99
2022-11-25T00:10:33.246Z,9.99
2022-11-25T00:11:33.211Z,9.92
2022-11-25T00:12:33.172Z,9.97
2022-11-25T00:13:33.136Z,9.94
2022-11-25T00:14:33.321Z,9.92
2022-11-25T00:16:33.079Z,10.04
2022-11-25T00:17:32.992Z,10.04
2022-11-25T00:18:32.960Z,9.97
2022-11-25T00:19:32.921Z,10.04
2022-11-25T00:20:32.881Z,10.02
2022-11-25T00:21:32.840Z,10.09
2022-11-25T00:22:32.804Z,10.07
2022-11-25T00:23:33.525Z,9.98
2022-11-25T00:24:32.882Z,10.12
2022-11-25T00:25:32.698Z,10.04
2022-11-25T00:26:32.667Z,10.02
2022-11-25T00:27:32.632Z,10.09
2022-11-25T00:28:32.585Z,10.10
2022-11-25T00:29:32.555Z,10.09
2022-11-25T00:30:32.514Z,10.05
2022-11-25T00:31:32.580Z,10.07
2022-11-25T00:32:32.444Z,10.10
2022-11-25T00:33:32.398Z,10.17
2022-11-25T00:34:32.588Z,10.16
2022-11-25T00:37:15.020Z,10.07
2022-11-25T00:38:14.919Z,10.07
2022-11-25T00:40:18.803Z,10.16
2022-11-25T00:41:18.849Z,10.15
2022-11-25T00:43:25.674Z,10.15
2022-11-25T00:44:25.618Z,10.23
2022-11-25T00:46:18.521Z,10.22
2022-11-25T00:47:18.405Z,10.19
2022-11-25T00:51:06.440Z,10.19
2022-11-25T00:52:06.356Z,10.20
2022-11-25T00:54:10.276Z,10.23
2022-11-25T00:55:10.283Z,10.22
2022-11-25T00:57:03.053Z,10.23
2022-11-25T00:58:02.994Z,10.16
2022-11-25T01:00:06.886Z,10.19
2022-11-25T01:01:06.948Z,10.23
2022-11-25T01:03:10.820Z,10.20
2022-11-25T01:04:11.179Z,10.26
2022-11-25T01:06:14.818Z,10.20
2022-11-25T01:07:14.610Z,10.28
2022-11-25T01:08:14.513Z,10.30
2022-11-25T01:09:15.178Z,10.30
2022-11-25T01:10:14.479Z,10.22
2022-11-25T01:11:14.913Z,10.34
2022-11-25T01:12:14.360Z,10.26
2022-11-25T01:13:14.326Z,10.28
2022-11-25T01:14:14.293Z,10.22
2022-11-25T01:15:14.252Z,10.26
2022-11-25T01:16:14.402Z,10.26
2022-11-25T01:17:14.175Z,10.23
2022-11-25T01:18:14.142Z,10.23
2022-11-25T01:19:14.100Z,10.30
2022-11-25T01:20:14.077Z,10.31
2022-11-25T01:21:14.035Z,10.28
2022-11-25T01:22:13.993Z,10.20
2022-11-25T01:23:13.954Z,10.30
2022-11-25T01:24:13.972Z,10.22
2022-11-25T01:25:13.886Z,10.25
2022-11-25T01:26:13.845Z,10.31
2022-11-25T01:27:13.825Z,10.26
2022-11-25T01:28:13.791Z,10.33
2022-11-25T01:29:13.741Z,10.20
2022-11-25T01:30:13.704Z,10.22
2022-11-25T01:31:13.699Z,10.31
2022-11-25T01:32:13.630Z,10.25
2022-11-25T01:33:13.595Z,10.34
2022-11-25T01:34:13.555Z,10.28
2022-11-25T01:35:13.517Z,10.34
2022-11-25T01:36:13.481Z,10.34
2022-11-25T01:37:13.522Z,10.35
2022-11-25T01:38:13.418Z,10.25
2022-11-25T01:39:13.371Z,10.26
2022-11-25T01:40:13.381Z,10.33
2022-11-25T01:41:13.313Z,10.25
2022-11-25T01:42:13.259Z,10.31
2022-11-25T01:43:13.226Z,10.30
2022-11-25T01:44:13.185Z,10.28
2022-11-25T01:45:13.171Z,10.34
2022-11-25T01:46:13.179Z,10.28
2022-11-25T01:47:13.080Z,10.30
2022-11-25T01:48:13.043Z,10.30
2022-11-25T01:49:13.000Z,10.26
2022-11-25T01:50:12.964Z,10.34
2022-11-25T01:51:13.000Z,10.35
2022-11-25T01:52:12.904Z,10.30
2022-11-25T01:53:12.856Z,10.37
2022-11-25T01:54:13.309Z,10.40
2022-11-25T01:55:12.915Z,10.44
2022-11-25T01:56:12.759Z,10.42
2022-11-25T01:57:12.740Z,10.38
2022-11-25T01:58:12.673Z,10.46
2022-11-25T01:59:12.637Z,10.37
2022-11-25T02:00:12.597Z,10.38
2022-11-25T02:01:12.661Z,10.38
2022-11-25T02:02:12.587Z,10.41
2022-11-25T02:03:12.485Z,10.40
2022-11-25T02:04:12.449Z,10.44
2022-11-25T02:05:12.413Z,10.46
2022-11-25T02:06:12.375Z,10.48
2022-11-25T02:07:12.467Z,10.44
2022-11-25T02:08:12.303Z,10.41
2022-11-25T02:09:12.296Z,10.41
2022-11-25T02:10:12.426Z,10.44
2022-11-25T02:11:12.194Z,10.48
2022-11-25T02:12:12.155Z,10.42
2022-11-25T02:13:12.119Z,10.41
2022-11-25T02:14:12.078Z,10.35
2022-11-25T02:15:12.215Z,10.44
2022-11-25T02:16:12.047Z,10.44
2022-11-25T02:17:11.965Z,10.42
2022-11-25T02:18:11.935Z,10.46
2022-11-25T02:19:11.897Z,10.44
2022-11-25T02:20:11.858Z,10.44
2022-11-25T02:21:11.824Z,10.35
2022-11-25T02:22:11.784Z,10.34
2022-11-25T02:23:11.751Z,10.40
2022-11-25T02:24:11.802Z,10.38
2022-11-25T02:25:11.696Z,10.40
2022-11-25T02:26:11.646Z,10.48
2022-11-25T02:27:11.601Z,10.42
2022-11-25T02:28:11.563Z,10.46
2022-11-25T02:29:11.571Z,10.51
2022-11-25T02:30:11.502Z,10.46
2022-11-25T02:31:11.452Z,10.46
2022-11-25T02:32:11.418Z,10.42
2022-11-25T02:33:11.387Z,10.48
2022-11-25T02:34:11.340Z,10.53
2022-11-25T02:35:11.320Z,10.53
2022-11-25T02:36:11.272Z,10.57
2022-11-25T02:37:26.133Z,10.57
2022-11-25T02:38:11.246Z,10.56
2022-11-25T02:39:11.164Z,10.57
2022-11-25T02:40:11.130Z,10.67
2022-11-25T02:41:11.086Z,10.68
2022-11-25T02:42:11.058Z,10.59
2022-11-25T02:43:11.016Z,10.60
2022-11-25T02:44:10.982Z,10.59
2022-11-25T02:45:10.942Z,10.60
2022-11-25T02:46:10.956Z,10.67
2022-11-25T02:47:11.367Z,10.63
2022-11-25T02:48:10.927Z,10.61
2022-11-25T02:49:11.106Z,10.71
2022-11-25T02:50:10.764Z,10.64
2022-11-25T02:51:10.718Z,10.69
2022-11-25T02:52:10.683Z,10.63
2022-11-25T02:53:10.651Z,10.69
2022-11-25T02:54:10.632Z,10.69
2022-11-25T02:55:10.575Z,10.69
2022-11-25T02:56:10.538Z,10.60
2022-11-25T02:57:10.511Z,10.64
2022-11-25T02:58:10.497Z,10.69
2022-11-25T02:59:10.425Z,10.64
2022-11-25T03:00:10.387Z,10.64
2022-11-25T03:01:10.933Z,10.64
2022-11-25T03:03:10.280Z,10.61
2022-11-25T03:04:10.242Z,10.69
2022-11-25T03:05:10.203Z,10.72
2022-11-25T03:06:10.167Z,10.67
2022-11-25T03:07:10.200Z,10.76
2022-11-25T03:08:10.107Z,10.72
2022-11-25T03:09:10.079Z,10.75
2022-11-25T03:10:10.024Z,10.75
2022-11-25T03:11:09.986Z,10.74
2022-11-25T03:12:09.948Z,10.63
2022-11-25T03:13:09.923Z,10.67
2022-11-25T03:14:09.886Z,10.67
2022-11-25T03:15:09.840Z,10.61
2022-11-25T03:16:09.864Z,10.75
2022-11-25T03:17:12.422Z,10.72
2022-11-25T03:18:10.590Z,10.75
2022-11-25T03:19:09.702Z,10.75
2022-11-25T03:20:09.660Z,10.74
2022-11-25T03:21:09.622Z,10.79
2022-11-25T03:22:09.583Z,10.81
2022-11-25T03:23:09.546Z,10.81
2022-11-25T03:24:09.587Z,10.79
2022-11-25T03:25:09.564Z,10.78
2022-11-25T03:26:09.618Z,10.82
2022-11-25T03:27:09.400Z,10.78
2022-11-25T03:28:09.389Z,10.81
2022-11-25T03:30:09.292Z,10.79
2022-11-25T03:31:09.257Z,10.86
2022-11-25T03:32:09.804Z,10.82
2022-11-25T03:33:09.182Z,10.82
2022-11-25T03:34:09.153Z,10.86
2022-11-25T03:35:09.107Z,10.86
2022-11-25T03:36:09.070Z,10.81
2022-11-25T03:37:09.135Z,10.92
2022-11-25T03:38:09.232Z,10.92
2022-11-25T03:39:23.850Z,10.90
2022-11-25T03:40:08.930Z,10.84
2022-11-25T03:41:08.886Z,10.92
2022-11-25T03:42:08.853Z,10.97
2022-11-25T03:43:08.842Z,10.89
2022-11-25T03:44:10.322Z,10.89
2022-11-25T03:45:08.783Z,10.75
2022-11-25T03:46:08.814Z,10.86
2022-11-25T03:47:08.702Z,10.81
2022-11-25T03:48:08.640Z,10.79
2022-11-25T03:49:08.612Z,10.81
2022-11-25T03:50:08.909Z,10.75
2022-11-25T03:51:08.603Z,10.84
2022-11-25T03:52:08.484Z,10.90
2022-11-25T03:53:08.455Z,10.87
2022-11-25T03:54:08.416Z,10.87
2022-11-25T03:55:08.387Z,10.89
2022-11-25T03:56:08.341Z,10.81
2022-11-25T03:57:08.303Z,10.81
2022-11-25T03:58:08.271Z,10.84
2022-11-25T03:59:08.287Z,10.78
2022-11-25T04:00:08.209Z,10.92
2022-11-25T04:01:08.191Z,10.82
2022-11-25T04:02:08.162Z,10.92
2022-11-25T04:03:08.084Z,10.92
2022-11-25T04:04:08.054Z,10.93
2022-11-25T04:05:08.017Z,10.92
2022-11-25T04:06:07.979Z,10.89
2022-11-25T04:07:07.938Z,10.94
2022-11-25T04:08:07.971Z,10.89
2022-11-25T04:09:07.864Z,10.87
2022-11-25T04:10:07.838Z,10.94
2022-11-25T04:11:07.798Z,10.92
2022-11-25T04:12:07.754Z,10.92
2022-11-25T04:13:07.725Z,10.89
2022-11-25T04:15:07.646Z,10.89
2022-11-25T04:16:07.612Z,10.90
2022-11-25T04:17:07.672Z,10.94
2022-11-25T04:18:07.539Z,10.93
2022-11-25T04:19:07.499Z,10.93
2022-11-25T04:21:08.782Z,10.87
2022-11-25T04:22:07.401Z,10.87
2022-11-25T04:23:07.357Z,10.90
2022-11-25T04:24:07.365Z,10.84
2022-11-25T04:25:07.280Z,10.89
2022-11-25T04:26:07.263Z,10.84
2022-11-25T04:27:07.206Z,10.78
2022-11-25T04:28:07.205Z,10.87
2022-11-25T04:29:07.135Z,10.82
2022-11-25T04:30:07.098Z,10.78
2022-11-25T04:31:07.127Z,10.76
2022-11-25T04:32:07.032Z,10.78
2022-11-25T04:33:06.992Z,10.76
2022-11-25T04:34:06.959Z,10.69
2022-11-25T04:35:06.929Z,10.78
2022-11-25T04:36:06.881Z,10.81
2022-11-25T04:37:06.842Z,10.75
2022-11-25T04:38:06.868Z,10.64
2022-11-25T04:39:06.773Z,10.64
2022-11-25T04:40:06.781Z,10.72
2022-11-25T04:41:06.727Z,10.72
2022-11-25T04:42:06.714Z,10.63
2022-11-25T04:43:10.520Z,10.69
2022-11-25T04:44:21.196Z,10.69
2022-11-25T04:45:22.143Z,10.64
2022-11-25T04:46:14.134Z,10.67
2022-11-25T04:47:06.556Z,10.68
2022-11-25T04:48:06.453Z,10.67
2022-11-25T04:49:06.422Z,10.63
2022-11-25T04:50:06.365Z,10.68
2022-11-25T04:51:06.333Z,10.64
2022-11-25T04:52:06.294Z,10.67
2022-11-25T04:53:06.307Z,10.60
2022-11-25T04:54:06.228Z,10.59
2022-11-25T04:55:06.179Z,10.60
2022-11-25T04:56:06.258Z,10.61
2022-11-25T04:57:06.229Z,10.67
2022-11-25T04:58:06.078Z,10.59
2022-11-25T04:59:06.038Z,10.56
2022-11-25T05:00:06.000Z,10.68
2022-11-25T05:01:05.998Z,10.60
2022-11-25T05:02:06.002Z,10.57
2022-11-25T05:03:05.889Z,10.59
2022-11-25T05:04:05.855Z,10.61
2022-11-25T05:05:05.821Z,10.63
2022-11-25T05:06:05.834Z,10.64
2022-11-25T05:07:05.744Z,10.64
2022-11-25T05:08:05.713Z,10.68
2022-11-25T05:09:05.676Z,10.72
2022-11-25T05:10:05.636Z,10.61
2022-11-25T05:11:05.817Z,10.67
2022-11-25T05:12:05.565Z,10.67
2022-11-25T05:13:15.229Z,10.64
2022-11-25T05:14:05.490Z,10.60
2022-11-25T05:15:05.451Z,10.61
2022-11-25T05:16:05.418Z,10.61
2022-11-25T05:17:05.465Z,10.61
2022-11-25T05:20:05.364Z,10.64
2022-11-25T05:21:05.231Z,10.56
2022-11-25T05:22:05.192Z,10.60
2022-11-25T05:23:05.155Z,10.54
2022-11-25T05:24:05.117Z,10.57
2022-11-25T05:25:05.098Z,10.53
2022-11-25T05:26:05.048Z,10.59
2022-11-25T05:27:05.022Z,10.49
2022-11-25T05:28:04.969Z,10.54
2022-11-25T05:29:04.936Z,10.54
2022-11-25T05:30:04.898Z,10.57
2022-11-25T05:31:04.929Z,10.57
2022-11-25T05:32:04.823Z,10.54
2022-11-25T05:33:04.816Z,10.42
2022-11-25T05:34:04.753Z,10.49
2022-11-25T05:35:04.740Z,10.40
2022-11-25T05:36:05.727Z,10.41
2022-11-25T05:37:04.645Z,10.54
